Time;durP1;ratioP1;P1;durP2;ratioP2;P2;SDS_P1;SDS_P2;PMS_P1;PMS_P2;Temp;Humidity;BMP_temperature;BMP_pressure;BME280_temperature;BME280_humidity;BME280_pressure;Samples;Min_cycle;Max_cycle;Signal;HPM_P1;HPM_P2
2023/08/18 00:00:32;;;;;;;;;;;26.90;81.70;;;;;;7386046;19;20246;-76
2023/08/18 00:03:00;;;;;;;;;;;26.80;81.70;;;;;;7385876;19;19963;-76
2023/08/18 00:05:29;;;;;;;;;;;26.80;81.90;;;;;;7385772;19;19907;-76
2023/08/18 00:07:57;;;;;;;;;;;26.70;82.00;;;;;;7386524;19;19944;-77
2023/08/18 00:10:26;;;;;;;;;;;26.70;82.60;;;;;;7407949;19;19919;-77
2023/08/18 00:12:57;;;;;;;;;;;26.60;82.70;;;;;;7385496;19;19915;-77
2023/08/18 00:15:25;;;;;;;;;;;26.40;83.20;;;;;;7385766;19;19919;-76
2023/08/18 00:20:50;;;;;;;;;;;26.40;83.50;;;;;;7380903;19;19951;-76
2023/08/18 00:23:18;;;;;;;;;;;26.40;83.60;;;;;;7385780;19;19907;-77
2023/08/18 00:25:46;;;;;;;;;;;26.40;83.70;;;;;;7386200;19;19925;-76
2023/08/18 00:28:18;;;;;;;;;;;26.40;83.80;;;;;;7406823;19;19919;-76
2023/08/18 00:30:46;;;;;;;;;;;26.40;83.80;;;;;;7384251;19;19978;-77
2023/08/18 00:33:14;;;;;;;;;;;26.40;83.80;;;;;;7390314;19;19914;-77
2023/08/18 00:35:43;;;;;;;;;;;26.40;84.00;;;;;;7388184;19;19927;-75
2023/08/18 00:38:12;;;;;;;;;;;26.40;84.10;;;;;;7387185;19;20180;-76
2023/08/18 00:40:40;;;;;;;;;;;26.30;84.00;;;;;;7410048;19;19951;-76
2023/08/18 00:43:09;;;;;;;;;;;26.40;84.10;;;;;;7386128;19;19938;-75
2023/08/18 00:45:40;;;;;;;;;;;26.40;84.10;;;;;;7384944;19;19932;-75
2023/08/18 00:48:09;;;;;;;;;;;26.30;84.10;;;;;;7382862;19;20366;-76
2023/08/18 00:50:37;;;;;;;;;;;26.20;84.40;;;;;;7378887;19;19957;-76
2023/08/18 00:53:06;;;;;;;;;;;26.30;84.60;;;;;;7380319;19;19907;-76
2023/08/18 00:55:35;;;;;;;;;;;26.30;84.70;;;;;;7401208;19;19962;-76
2023/08/18 00:58:04;;;;;;;;;;;26.30;84.50;;;;;;7378784;19;19960;-75
2023/08/18 01:00:32;;;;;;;;;;;26.30;84.40;;;;;;7378927;19;19924;-75
2023/08/18 01:03:04;;;;;;;;;;;26.30;84.50;;;;;;7379351;19;20169;-75
2023/08/18 01:05:33;;;;;;;;;;;26.30;84.60;;;;;;7379634;19;19907;-75
2023/08/18 01:08:02;;;;;;;;;;;26.40;84.70;;;;;;7379840;19;20007;-75
2023/08/18 01:10:32;;;;;;;;;;;26.30;84.60;;;;;;7400211;19;19914;-75
2023/08/18 01:13:04;;;;;;;;;;;26.30;84.60;;;;;;7378697;19;20200;-75
2023/08/18 01:15:35;;;;;;;;;;;26.30;84.60;;;;;;7378695;19;19963;-75
2023/08/18 01:18:06;;;;;;;;;;;26.30;84.80;;;;;;7379333;19;19903;-76
2023/08/18 01:20:35;;;;;;;;;;;26.30;84.70;;;;;;7378938;19;19911;-75
2023/08/18 01:23:06;;;;;;;;;;;26.20;84.90;;;;;;7379087;19;19928;-75
2023/08/18 01:25:35;;;;;;;;;;;26.20;84.90;;;;;;7400069;19;19919;-75
2023/08/18 01:28:06;;;;;;;;;;;26.30;85.00;;;;;;7377718;19;20243;-76
2023/08/18 01:30:36;;;;;;;;;;;26.20;85.00;;;;;;7377740;19;20374;-75
2023/08/18 01:33:06;;;;;;;;;;;26.20;84.90;;;;;;7379015;19;19972;-76
2023/08/18 01:35:35;;;;;;;;;;;26.20;84.80;;;;;;7379108;19;19942;-76
2023/08/18 01:38:07;;;;;;;;;;;26.20;85.10;;;;;;7379587;19;19908;-75
2023/08/18 01:40:37;;;;;;;;;;;26.20;85.00;;;;;;7407908;19;19919;-76
2023/08/18 01:43:06;;;;;;;;;;;26.20;85.20;;;;;;7384941;19;20243;-75
2023/08/18 01:45:36;;;;;;;;;;;26.20;85.20;;;;;;7385454;19;19958;-75
2023/08/18 01:48:05;;;;;;;;;;;26.20;85.00;;;;;;7385770;19;20534;-76
2023/08/18 01:50:33;;;;;;;;;;;26.10;85.30;;;;;;7384642;19;20141;-75
2023/08/18 01:53:02;;;;;;;;;;;26.10;85.50;;;;;;7385658;19;23218;-75
2023/08/18 01:55:33;;;;;;;;;;;26.10;86.10;;;;;;7408013;19;19919;-76
2023/08/18 01:58:01;;;;;;;;;;;26.10;85.20;;;;;;7387096;19;20160;-76
2023/08/18 02:00:30;;;;;;;;;;;26.10;85.10;;;;;;7386026;19;20195;-75
2023/08/18 02:02:58;;;;;;;;;;;26.10;85.20;;;;;;7386257;19;20232;-76
2023/08/18 02:05:26;;;;;;;;;;;26.10;85.30;;;;;;7385004;19;19911;-75
2023/08/18 02:07:55;;;;;;;;;;;26.10;85.50;;;;;;7384970;19;19915;-75
2023/08/18 02:10:23;;;;;;;;;;;26.10;85.50;;;;;;7405308;19;19910;-75
2023/08/18 02:12:54;;;;;;;;;;;26.00;85.30;;;;;;7384734;19;19915;-76
2023/08/18 02:15:23;;;;;;;;;;;26.00;85.60;;;;;;7386448;19;19970;-75
2023/08/18 02:17:51;;;;;;;;;;;25.90;85.70;;;;;;7392393;19;20256;-77
2023/08/18 02:20:20;;;;;;;;;;;25.90;85.90;;;;;;7386955;19;19910;-76
2023/08/18 02:22:48;;;;;;;;;;;25.90;86.00;;;;;;7386713;19;19919;-76
2023/08/18 02:25:16;;;;;;;;;;;25.80;86.10;;;;;;7403827;19;19936;-76
2023/08/18 02:27:45;;;;;;;;;;;25.80;86.00;;;;;;7383379;19;19970;-76
2023/08/18 02:30:16;;;;;;;;;;;25.80;86.00;;;;;;7383051;19;19907;-75
2023/08/18 02:32:45;;;;;;;;;;;25.80;86.00;;;;;;7382387;19;20154;-74
2023/08/18 02:35:13;;;;;;;;;;;25.80;85.90;;;;;;7384387;19;19923;-76
2023/08/18 02:37:42;;;;;;;;;;;25.80;86.00;;;;;;7405764;19;19954;-75
2023/08/18 02:40:11;;;;;;;;;;;25.80;85.90;;;;;;7384735;19;19926;-75
2023/08/18 02:42:39;;;;;;;;;;;25.70;86.10;;;;;;7383401;19;19911;-75
2023/08/18 02:45:08;;;;;;;;;;;25.70;86.10;;;;;;7383806;19;19973;-74
2023/08/18 02:47:40;;;;;;;;;;;25.70;86.20;;;;;;7383393;19;19907;-74
2023/08/18 02:50:09;;;;;;;;;;;25.70;86.10;;;;;;7382659;19;20333;-75
2023/08/18 02:52:37;;;;;;;;;;;25.70;86.10;;;;;;7402720;19;19915;-75
2023/08/18 02:55:06;;;;;;;;;;;25.70;86.30;;;;;;7383071;19;19911;-74
2023/08/18 02:57:35;;;;;;;;;;;25.70;86.30;;;;;;7382341;19;19907;-74
2023/08/18 03:00:03;;;;;;;;;;;25.70;86.40;;;;;;7383027;19;19986;-74
2023/08/18 03:02:32;;;;;;;;;;;25.70;86.50;;;;;;7383352;19;19907;-75
2023/08/18 03:05:04;;;;;;;;;;;25.70;86.80;;;;;;7383525;19;19941;-75
2023/08/18 03:07:32;;;;;;;;;;;25.70;86.60;;;;;;7404591;19;19911;-75
2023/08/18 03:10:01;;;;;;;;;;;25.70;86.40;;;;;;7382218;19;19907;-75
2023/08/18 03:12:29;;;;;;;;;;;25.70;86.50;;;;;;7380815;19;19915;-76
2023/08/18 03:14:57;;;;;;;;;;;25.70;86.40;;;;;;7382874;19;19911;-75
2023/08/18 03:17:26;;;;;;;;;;;25.70;86.30;;;;;;7382487;19;19928;-75
2023/08/18 03:19:54;;;;;;;;;;;25.60;86.30;;;;;;7382239;19;20138;-75
2023/08/18 03:22:25;;;;;;;;;;;25.60;86.60;;;;;;7404168;19;19915;-74
2023/08/18 03:24:54;;;;;;;;;;;25.60;86.50;;;;;;7381739;19;20325;-74
2023/08/18 03:27:22;;;;;;;;;;;25.50;86.50;;;;;;7382069;19;19928;-75
2023/08/18 03:29:51;;;;;;;;;;;25.50;86.70;;;;;;7385983;19;19936;-74
2023/08/18 03:32:19;;;;;;;;;;;25.50;87.10;;;;;;7382002;19;19921;-74
2023/08/18 03:34:47;;;;;;;;;;;25.50;86.80;;;;;;7381947;19;19975;-76
2023/08/18 03:37:16;;;;;;;;;;;25.50;86.50;;;;;;7405405;19;19919;-75
2023/08/18 03:39:47;;;;;;;;;;;25.50;86.40;;;;;;7381587;19;20227;-75
2023/08/18 03:42:15;;;;;;;;;;;25.50;86.60;;;;;;7382111;19;19924;-75
2023/08/18 03:44:44;;;;;;;;;;;25.50;86.60;;;;;;7381700;19;20155;-74
2023/08/18 03:47:12;;;;;;;;;;;25.50;86.60;;;;;;7385521;19;19952;-74
2023/08/18 03:49:41;;;;;;;;;;;25.50;86.70;;;;;;7403096;19;20191;-75
2023/08/18 03:52:09;;;;;;;;;;;25.50;86.50;;;;;;7380194;19;19911;-76
2023/08/18 03:54:37;;;;;;;;;;;25.50;86.60;;;;;;7380822;19;19938;-75
2023/08/18 03:57:08;;;;;;;;;;;25.50;86.60;;;;;;7381684;19;19915;-75
2023/08/18 03:59:37;;;;;;;;;;;25.50;86.80;;;;;;7381714;19;19924;-74
2023/08/18 04:02:05;;;;;;;;;;;25.40;86.70;;;;;;7380307;19;20242;-75
2023/08/18 04:04:34;;;;;;;;;;;25.50;86.70;;;;;;7402895;19;19922;-75
2023/08/18 04:07:02;;;;;;;;;;;25.40;86.70;;;;;;7381074;19;19916;-75
2023/08/18 04:09:31;;;;;;;;;;;25.40;86.60;;;;;;7381480;19;19910;-76
2023/08/18 04:11:59;;;;;;;;;;;25.40;86.40;;;;;;7381140;19;19911;-76
2023/08/18 04:14:30;;;;;;;;;;;25.30;86.50;;;;;;7381616;19;19915;-76
2023/08/18 04:16:58;;;;;;;;;;;25.30;86.80;;;;;;7381937;19;19931;-76
2023/08/18 04:19:27;;;;;;;;;;;25.30;86.80;;;;;;7402008;19;19907;-76
2023/08/18 04:21:55;;;;;;;;;;;25.30;86.90;;;;;;7379935;19;19915;-75
2023/08/18 04:24:24;;;;;;;;;;;25.30;86.90;;;;;;7380525;19;19970;-74
2023/08/18 04:26:59;;;;;;;;;;;25.20;87.10;;;;;;7380021;19;20267;-75
2023/08/18 04:29:30;;;;;;;;;;;25.20;87.30;;;;;;7380029;19;19970;-75
2023/08/18 04:31:58;;;;;;;;;;;25.20;87.30;;;;;;7380163;19;19915;-75
2023/08/18 04:34:27;;;;;;;;;;;25.20;87.30;;;;;;7401968;19;19915;-74
2023/08/18 04:36:56;;;;;;;;;;;25.20;87.40;;;;;;7381077;19;19975;-75
2023/08/18 04:39:24;;;;;;;;;;;25.20;87.80;;;;;;7379655;19;19907;-75
2023/08/18 04:41:53;;;;;;;;;;;25.20;88.10;;;;;;7379555;19;19928;-75
2023/08/18 04:44:21;;;;;;;;;;;25.20;88.50;;;;;;7380205;19;19928;-75
2023/08/18 04:46:52;;;;;;;;;;;25.20;88.60;;;;;;7379755;19;19919;-75
2023/08/18 04:49:21;;;;;;;;;;;25.20;88.60;;;;;;7401037;19;20271;-76
2023/08/18 04:51:49;;;;;;;;;;;25.20;88.00;;;;;;7378702;19;19939;-75
2023/08/18 04:54:18;;;;;;;;;;;25.20;87.70;;;;;;7379256;19;19971;-75
2023/08/18 04:56:46;;;;;;;;;;;25.20;87.80;;;;;;7380058;19;19966;-75
2023/08/18 04:59:14;;;;;;;;;;;25.20;88.30;;;;;;7379693;19;19991;-74
2023/08/18 05:01:43;;;;;;;;;;;25.10;88.40;;;;;;7391343;19;19903;-74
2023/08/18 05:04:14;;;;;;;;;;;25.10;88.00;;;;;;7400512;19;20219;-74
2023/08/18 05:06:42;;;;;;;;;;;25.10;87.90;;;;;;7378761;19;19970;-75
2023/08/18 05:09:10;;;;;;;;;;;25.10;88.20;;;;;;7379242;19;19995;-74
2023/08/18 05:11:39;;;;;;;;;;;25.10;88.00;;;;;;7379035;19;19959;-75
2023/08/18 05:14:07;;;;;;;;;;;25.10;88.00;;;;;;7385227;19;19939;-76
2023/08/18 05:16:36;;;;;;;;;;;25.10;87.80;;;;;;7408633;19;19959;-75
2023/08/18 05:19:05;;;;;;;;;;;25.10;87.70;;;;;;7385583;19;19911;-75
2023/08/18 05:21:36;;;;;;;;;;;25.10;87.80;;;;;;7385714;19;19903;-76
2023/08/18 05:24:04;;;;;;;;;;;25.10;87.90;;;;;;7386383;19;19970;-75
2023/08/18 05:26:33;;;;;;;;;;;25.10;87.90;;;;;;7385736;19;19970;-75
2023/08/18 05:29:01;;;;;;;;;;;25.10;87.70;;;;;;7386367;19;19915;-75
2023/08/18 05:31:30;;;;;;;;;;;25.20;87.90;;;;;;7407626;19;19958;-74
2023/08/18 05:33:59;;;;;;;;;;;25.20;88.00;;;;;;7388598;19;19928;-74
2023/08/18 05:36:29;;;;;;;;;;;25.20;88.00;;;;;;7385473;19;20185;-74
2023/08/18 05:39:00;;;;;;;;;;;25.30;88.00;;;;;;7385567;19;20131;-75
2023/08/18 05:41:29;;;;;;;;;;;25.30;88.00;;;;;;7386072;19;19954;-75
2023/08/18 05:43:57;;;;;;;;;;;25.30;88.00;;;;;;7386059;19;19928;-75
2023/08/18 05:46:25;;;;;;;;;;;25.40;88.10;;;;;;7407452;19;19924;-74
2023/08/18 05:48:54;;;;;;;;;;;25.40;88.10;;;;;;7384980;19;19924;-75
2023/08/18 05:51:22;;;;;;;;;;;25.40;88.00;;;;;;7385546;19;20228;-74
2023/08/18 05:53:51;;;;;;;;;;;25.40;88.20;;;;;;7383885;19;20509;-74
2023/08/18 05:56:22;;;;;;;;;;;25.50;88.40;;;;;;7385052;19;19932;-74
2023/08/18 05:58:50;;;;;;;;;;;25.50;88.80;;;;;;7385182;19;19934;-75
2023/08/18 06:01:19;;;;;;;;;;;25.60;89.80;;;;;;7407789;19;19947;-75
2023/08/18 06:03:47;;;;;;;;;;;25.60;89.40;;;;;;7385982;19;19907;-76
2023/08/18 06:06:16;;;;;;;;;;;25.70;89.50;;;;;;7387237;19;19920;-75
2023/08/18 06:08:44;;;;;;;;;;;25.70;89.90;;;;;;7386795;19;19920;-75
2023/08/18 06:11:12;;;;;;;;;;;25.70;89.80;;;;;;7384997;19;19903;-75
2023/08/18 06:13:43;;;;;;;;;;;25.80;89.90;;;;;;7404682;19;19983;-75
2023/08/18 06:16:12;;;;;;;;;;;25.80;89.80;;;;;;7387389;19;19964;-75
2023/08/18 06:18:40;;;;;;;;;;;25.90;90.00;;;;;;7384131;19;19907;-75
2023/08/18 06:21:09;;;;;;;;;;;25.90;90.00;;;;;;7385941;19;19923;-75
2023/08/18 06:23:37;;;;;;;;;;;26.00;90.10;;;;;;7384548;19;19903;-75
2023/08/18 06:26:06;;;;;;;;;;;26.00;90.00;;;;;;7382731;19;19928;-75
2023/08/18 06:28:34;;;;;;;;;;;26.10;90.10;;;;;;7405512;19;20412;-75
2023/08/18 06:31:09;;;;;;;;;;;26.10;90.10;;;;;;7383450;19;19918;-75
2023/08/18 06:33:38;;;;;;;;;;;26.20;90.20;;;;;;7381771;19;19973;-74
2023/08/18 06:36:07;;;;;;;;;;;26.20;90.20;;;;;;7383710;19;19907;-75
2023/08/18 06:38:35;;;;;;;;;;;26.30;90.30;;;;;;7383884;19;19966;-75
2023/08/18 06:41:06;;;;;;;;;;;26.30;90.30;;;;;;7383991;19;20568;-75
2023/08/18 06:43:34;;;;;;;;;;;26.40;90.40;;;;;;7406338;19;19929;-76
2023/08/18 06:46:03;;;;;;;;;;;26.40;90.40;;;;;;7383102;19;19924;-75
2023/08/18 06:48:34;;;;;;;;;;;26.40;90.40;;;;;;7383145;19;19913;-75
2023/08/18 06:51:02;;;;;;;;;;;26.50;90.50;;;;;;7384489;19;19960;-75
2023/08/18 06:53:31;;;;;;;;;;;26.50;90.50;;;;;;7383118;19;19962;-75
2023/08/18 06:55:59;;;;;;;;;;;26.60;90.60;;;;;;7383996;19;19911;-75
2023/08/18 06:58:27;;;;;;;;;;;26.60;90.60;;;;;;7405023;19;19915;-75
2023/08/18 07:00:56;;;;;;;;;;;26.70;90.60;;;;;;7382620;19;19979;-75
2023/08/18 07:55:46;;;;;;;;;;;27.30;90.30;;;;;;7405793;19;19911;-83
2023/08/18 07:58:15;;;;;;;;;;;27.30;90.30;;;;;;7408564;19;19915;-82
2023/08/18 08:00:47;;;;;;;;;;;27.30;90.30;;;;;;7408288;19;19918;-82
2023/08/18 08:29:57;;;;;;;;;;;27.90;90.00;;;;;;7361127;19;19915;-83
2023/08/18 08:52:02;;;;;;;;;;;;;;;;;;;;;
2023/08/18 08:57:27;;;;;;;;;;;27.90;90.20;;;;;;7401364;19;20219;-78
2023/08/18 08:59:59;;;;;;;;;;;27.90;90.20;;;;;;7378275;19;20223;-78
2023/08/18 09:02:28;;;;;;;;;;;28.00;90.40;;;;;;7382487;19;19918;-79
2023/08/18 09:05:00;;;;;;;;;;;28.10;90.40;;;;;;7382200;19;19907;-80
2023/08/18 09:07:31;;;;;;;;;;;28.20;90.40;;;;;;7406829;19;19931;-78
2023/08/18 09:10:00;;;;;;;;;;;28.30;90.20;;;;;;7385710;19;19911;-77
2023/08/18 09:12:29;;;;;;;;;;;28.40;90.00;;;;;;7383736;19;20043;-78
2023/08/18 09:14:58;;;;;;;;;;;28.50;90.00;;;;;;7383694;19;20166;-80
2023/08/18 09:17:29;;;;;;;;;;;28.60;89.80;;;;;;7382438;19;19928;-81
2023/08/18 09:19:58;;;;;;;;;;;28.60;89.60;;;;;;7382095;19;19911;-79
2023/08/18 09:25:24;;;;;;;;;;;28.80;88.50;;;;;;7361522;19;19948;-80
2023/08/18 09:30:53;;;;;;;;;;;28.90;88.00;;;;;;7362145;19;19919;-83
2023/08/18 09:33:32;;;;;;;;;;;29.00;88.10;;;;;;7408444;19;19914;-83
2023/08/18 09:36:18;;;;;;;;;;;29.10;87.70;;;;;;7386832;19;19911;-82
2023/08/18 09:38:59;;;;;;;;;;;29.10;87.00;;;;;;7388230;19;20223;-83
2023/08/18 09:41:28;;;;;;;;;;;29.20;86.90;;;;;;7384117;19;20108;-81
2023/08/18 09:43:57;;;;;;;;;;;29.20;86.90;;;;;;7380472;19;20250;-78
2023/08/18 09:46:28;;;;;;;;;;;29.20;86.60;;;;;;7400310;19;20178;-78
2023/08/18 09:48:57;;;;;;;;;;;29.30;87.10;;;;;;7382196;19;19992;-77
2023/08/18 09:51:27;;;;;;;;;;;29.30;87.00;;;;;;7400445;19;19935;-79
2023/08/18 09:54:00;;;;;;;;;;;29.30;86.00;;;;;;7400053;19;19932;-79
2023/08/18 09:56:30;;;;;;;;;;;29.30;86.10;;;;;;7394687;19;19907;-79
2023/08/18 09:59:04;;;;;;;;;;;29.30;86.30;;;;;;7394874;19;19935;-79
2023/08/18 10:01:33;;;;;;;;;;;29.30;86.00;;;;;;7408113;19;20297;-76
2023/08/18 10:04:01;;;;;;;;;;;29.30;86.00;;;;;;7384054;19;19950;-76
2023/08/18 10:06:33;;;;;;;;;;;29.30;86.00;;;;;;7385718;19;19943;-81
2023/08/18 10:09:04;;;;;;;;;;;29.30;85.80;;;;;;7387577;19;20136;-75
2023/08/18 10:11:32;;;;;;;;;;;29.30;85.90;;;;;;7391801;19;19943;-77
2023/08/18 10:14:03;;;;;;;;;;;29.30;86.10;;;;;;7386971;19;19952;-78
2023/08/18 10:16:34;;;;;;;;;;;29.40;86.30;;;;;;7411730;19;20112;-82
2023/08/18 10:19:04;;;;;;;;;;;29.40;86.30;;;;;;7390196;19;19935;-78
2023/08/18 10:21:33;;;;;;;;;;;29.40;86.20;;;;;;7387807;19;19924;-78
2023/08/18 10:24:06;;;;;;;;;;;29.40;86.10;;;;;;7387373;19;19927;-80
2023/08/18 10:26:48;;;;;;;;;;;29.50;85.90;;;;;;7388604;19;19936;-83
2023/08/18 10:29:20;;;;;;;;;;;29.50;85.60;;;;;;7387770;19;20425;-78
2023/08/18 10:31:49;;;;;;;;;;;29.50;85.60;;;;;;7389329;19;19999;-80
2023/08/18 10:34:24;;;;;;;;;;;29.50;85.90;;;;;;7407537;19;19935;-81
2023/08/18 10:36:59;;;;;;;;;;;29.60;85.80;;;;;;7387603;19;19907;-79
2023/08/18 10:39:36;;;;;;;;;;;29.60;85.70;;;;;;7389111;19;19903;-78
2023/08/18 10:46:42;;;;;;;17.95;9.02;;;29.70;85.50;;;;;;7422833;19;20238;-82
2023/08/18 10:49:13;;;;;;;13.88;7.35;;;29.80;84.70;;;;;;7441772;19;20003;-80
2023/08/18 10:52:23;;;;;;;12.93;7.57;;;29.80;84.30;;;;;;7420951;19;20039;-83
2023/08/18 10:54:52;;;;;;;20.73;10.30;;;29.90;84.50;;;;;;7423924;19;20011;-79
2023/08/18 11:00:11;;;;;;;11.85;7.30;;;29.90;84.60;;;;;;7443857;19;20027;-83
2023/08/18 11:02:44;;;;;;;23.05;7.40;;;30.00;84.70;;;;;;7415176;19;20005;-78
2023/08/18 11:05:16;;;;;;;18.13;10.38;;;30.00;84.40;;;;;;7421642;19;20117;-78
2023/08/18 11:07:45;;;;;;;13.50;8.25;;;30.00;83.20;;;;;;7418054;19;20018;-78
2023/08/18 11:10:18;;;;;;;14.20;8.13;;;29.90;82.90;;;;;;7436273;19;20013;-79
2023/08/18 11:12:48;;;;;;;15.95;9.25;;;29.80;83.00;;;;;;7417786;19;20017;-79
2023/08/18 11:15:18;;;;;;;19.58;10.02;;;29.80;83.30;;;;;;7415904;19;20007;-78
2023/08/18 11:21:04;;;;;;;14.00;8.40;;;29.60;84.30;;;;;;7428736;19;20030;-82
2023/08/18 11:26:47;;;;;;;13.73;7.65;;;29.40;85.20;;;;;;7443310;19;20013;-82
2023/08/18 11:29:22;;;;;;;12.05;7.65;;;29.40;85.70;;;;;;7423193;19;20002;-83
2023/08/18 11:35:01;;;;;;;18.45;8.55;;;29.30;86.40;;;;;;7395744;19;20014;-78
2023/08/18 11:37:33;;;;;;;17.43;10.47;;;29.30;87.20;;;;;;7443285;19;20003;-77
2023/08/18 11:45:59;;;;;;;11.63;7.78;;;29.30;88.50;;;;;;7386955;19;20026;-79
2023/08/18 11:48:30;;;;;;;19.73;8.48;;;29.30;88.50;;;;;;7437277;19;20112;-78
2023/08/18 11:50:59;;;;;;;16.60;8.38;;;29.30;88.60;;;;;;7435915;19;20007;-79
2023/08/18 11:53:31;;;;;;;12.52;8.32;;;29.40;88.90;;;;;;7414379;19;20075;-80
2023/08/18 11:56:00;;;;;;;14.57;8.13;;;29.40;88.90;;;;;;7391091;19;20106;-79
2023/08/18 11:58:29;;;;;;;14.15;8.63;;;29.40;88.90;;;;;;7414368;19;20011;-80
2023/08/18 12:00:58;;;;;;;16.63;8.02;;;29.40;89.10;;;;;;7392550;19;20046;-80
2023/08/18 12:03:31;;;;;;;10.52;7.57;;;29.30;89.10;;;;;;7393880;19;20003;-81
2023/08/18 12:06:14;;;;;;;13.90;8.07;;;29.30;88.90;;;;;;7391285;19;20006;-81
2023/08/18 12:09:13;;;;;;;9.90;7.72;;;29.40;89.10;;;;;;7394993;19;20007;-82
2023/08/18 12:18:54;;;;;;;16.02;7.20;;;29.70;88.90;;;;;;7413127;19;20402;-83
2023/08/18 12:21:23;;;;;;;16.08;6.80;;;29.90;88.40;;;;;;7391182;19;20009;-79
2023/08/18 12:23:53;;;;;;;16.00;7.53;;;30.10;87.30;;;;;;7389452;19;20014;-80
2023/08/18 12:26:23;;;;;;;15.75;6.78;;;30.40;86.60;;;;;;7390980;19;19998;-82
2023/08/18 12:29:19;;;;;;;12.63;6.80;;;30.60;85.90;;;;;;7412592;19;20011;-84
2023/08/18 12:31:50;;;;;;;10.98;6.70;;;30.90;83.90;;;;;;7393204;19;20023;-83
2023/08/18 12:34:22;;;;;;;12.07;7.03;;;30.90;83.10;;;;;;7413045;19;20014;-80
2023/08/18 12:36:56;;;;;;;11.82;7.00;;;31.00;82.70;;;;;;7391114;19;20015;-80
2023/08/18 12:39:27;;;;;;;18.35;6.47;;;31.20;82.70;;;;;;7413728;19;20050;-83
2023/08/18 12:47:57;;;;;;;11.77;5.97;;;31.50;81.00;;;;;;7392476;19;20021;-81
2023/08/18 12:53:48;;;;;;;14.63;7.15;;;31.70;80.70;;;;;;7395194;19;19998;-84
2023/08/18 12:56:17;;;;;;;12.60;6.07;;;31.70;79.70;;;;;;7390702;19;20010;-80
2023/08/18 12:58:46;;;;;;;13.35;6.53;;;31.60;78.90;;;;;;7388736;19;20022;-79
2023/08/18 13:01:14;;;;;;;11.68;6.50;;;31.60;79.30;;;;;;7413368;19;20014;-80
2023/08/18 13:03:43;;;;;;;10.57;6.47;;;31.50;79.10;;;;;;7388442;19;20037;-82
2023/08/18 13:12:50;;;;;;;12.32;6.30;;;31.40;80.00;;;;;;7417038;19;20036;-81
2023/08/18 13:15:19;;;;;;;11.93;6.95;;;31.30;79.30;;;;;;7389615;19;20011;-79
2023/08/18 13:17:53;;;;;;;11.20;6.75;;;31.30;79.70;;;;;;7391525;19;20034;-79
2023/08/18 13:21:11;;;;;;;9.95;6.20;;;31.30;79.50;;;;;;7394277;19;20020;-83
2023/08/18 13:23:55;;;;;;;13.07;6.28;;;31.20;79.40;;;;;;7389327;19;20014;-81
2023/08/18 13:54:35;;;;;;;11.25;6.60;;;30.80;82.90;;;;;;7414980;19;19998;-82
2023/08/18 13:57:29;;;;;;;18.85;6.10;;;30.70;82.50;;;;;;7390646;19;20010;-89
2023/08/18 13:59:58;;;;;;;9.02;6.45;;;30.70;82.60;;;;;;7387966;19;20010;-81
2023/08/18 14:02:27;;;;;;;13.15;6.50;;;30.60;83.00;;;;;;7386392;19;20010;-79
2023/08/18 14:04:55;;;;;;;13.90;6.80;;;30.60;83.90;;;;;;7385717;19;20002;-80
2023/08/18 14:07:27;;;;;;;18.13;6.63;;;30.60;84.10;;;;;;7405402;19;20037;-79
2023/08/18 14:10:00;;;;;;;15.52;6.93;;;30.60;84.40;;;;;;7384510;19;20110;-78
2023/08/18 14:12:28;;;;;;;14.10;6.45;;;30.70;85.00;;;;;;7385004;19;20011;-79
2023/08/18 14:14:58;;;;;;;10.85;6.63;;;30.70;85.10;;;;;;7384837;19;20031;-79
2023/08/18 14:17:37;;;;;;;12.30;5.85;;;30.70;85.00;;;;;;7386989;19;20009;-78
2023/08/18 14:20:12;;;;;;;11.07;6.18;;;30.80;84.90;;;;;;7387291;19;20011;-78
2023/08/18 14:22:41;;;;;;;17.55;7.15;;;30.80;84.90;;;;;;7406864;19;20025;-78
2023/08/18 14:25:13;;;;;;;13.82;6.60;;;30.80;84.90;;;;;;7388244;19;20082;-79
2023/08/18 14:27:42;;;;;;;11.65;6.55;;;30.90;85.00;;;;;;7387046;19;20211;-80
2023/08/18 14:30:11;;;;;;;10.82;6.13;;;30.90;84.50;;;;;;7389334;19;20031;-79
2023/08/18 14:32:40;;;;;;;10.98;6.68;;;31.00;84.30;;;;;;7384772;19;20071;-77
2023/08/18 14:35:10;;;;;;;11.10;6.55;;;31.10;84.10;;;;;;7383585;19;20002;-77
2023/08/18 14:37:40;;;;;;;10.00;6.25;;;31.20;84.30;;;;;;7405987;19;20243;-76
2023/08/18 15:39:49;;;;;;;9.15;5.40;;;33.20;74.60;;;;;;7352643;19;20030;-82
2023/08/18 15:42:18;;;;;;;11.00;5.20;;;33.30;73.30;;;;;;7397727;19;20010;-80
2023/08/18 15:44:47;;;;;;;13.05;5.68;;;33.30;73.40;;;;;;7392665;19;20014;-80
2023/08/18 15:47:30;;;;;;;9.70;5.63;;;33.20;73.90;;;;;;7395028;19;20002;-81
2023/08/18 15:56:30;;;;;;;;;;;33.10;74.50;;;;;;7401751;19;19999;-80
2023/08/18 16:02:12;;;;;;;11.43;5.40;;;33.20;74.50;;;;;;7394413;19;20010;-80
2023/08/18 16:04:41;;;;;;;9.00;5.43;;;33.30;74.40;;;;;;7412271;19;20007;-78
2023/08/18 16:07:13;;;;;;;12.35;5.60;;;33.30;73.50;;;;;;7390803;19;20015;-79
2023/08/18 16:12:55;;;;;;;;;;;33.50;72.30;;;;;;7393071;19;20010;-78
2023/08/18 19:03:15;;;;;;;20.15;9.52;;;30.40;89.40;;;;;;7387870;19;20103;-80
2023/08/18 19:05:43;;;;;;;17.73;9.02;;;30.30;89.70;;;;;;7398670;19;20006;-79
2023/08/18 19:08:14;;;;;;;16.88;9.93;;;30.20;89.90;;;;;;7404962;19;20034;-80
2023/08/18 19:10:43;;;;;;;15.73;8.98;;;30.20;89.90;;;;;;7429098;19;20030;-78
2023/08/18 19:13:12;;;;;;;19.60;9.95;;;30.20;90.40;;;;;;7428577;19;20022;-80
2023/08/18 19:15:41;;;;;;;20.33;9.70;;;30.10;90.10;;;;;;7402465;19;20014;-79
2023/08/18 19:18:10;;;;;;;14.60;9.77;;;30.00;90.10;;;;;;7398076;19;20215;-79
2023/08/18 19:20:42;;;;;;;13.23;9.30;;;30.00;90.20;;;;;;7396620;19;20003;-80
2023/08/18 19:23:11;;;;;;;14.50;9.50;;;30.00;90.30;;;;;;7395151;19;20010;-80
2023/08/18 19:53:11;;;;;;;;;;;;;;;;;;;;;
2023/08/18 20:19:54;;;;;;;15.90;10.57;;;29.60;91.00;;;;;;7421181;19;20066;-81
2023/08/18 20:30:27;;;;;;;16.15;10.68;;;29.50;91.50;;;;;;7420375;19;20007;-80
2023/08/18 20:33:20;;;;;;;17.70;11.05;;;29.40;91.60;;;;;;7441582;19;20006;-80
2023/08/18 20:36:00;;;;;;;17.25;11.52;;;29.40;91.50;;;;;;7424209;19;20014;-80
2023/08/18 20:38:35;;;;;;;17.13;10.53;;;29.40;91.50;;;;;;7422875;19;20011;-82
2023/08/18 20:41:09;;;;;;;16.75;10.68;;;29.40;91.50;;;;;;7423361;19;19992;-80
2023/08/18 20:43:38;;;;;;;17.15;11.15;;;29.50;91.60;;;;;;7444398;19;20267;-80
2023/08/18 20:46:12;;;;;;;21.85;11.82;;;29.40;91.60;;;;;;7426344;19;20016;-81
2023/08/18 20:48:45;;;;;;;19.15;10.57;;;29.50;91.60;;;;;;7424957;19;20014;-81
2023/08/18 20:51:17;;;;;;;17.05;10.38;;;29.50;91.50;;;;;;7422276;19;20047;-80
2023/08/18 20:53:55;;;;;;;15.30;10.70;;;29.40;91.50;;;;;;7422396;19;20011;-79
2023/08/18 20:56:27;;;;;;;22.05;11.20;;;29.40;91.50;;;;;;7429364;19;20034;-80
2023/08/18 20:59:10;;;;;;;16.95;10.57;;;29.40;91.60;;;;;;7439026;19;20021;-82
2023/08/18 21:01:48;;;;;;;16.83;10.98;;;29.30;91.70;;;;;;7461699;19;20014;-80
2023/08/18 21:04:27;;;;;;;;;;;;;;;;;;;;;
2023/08/18 21:06:56;;;;;;;16.80;11.10;;;29.40;91.70;;;;;;7430796;19;20011;-81
2023/08/18 21:09:25;;;;;;;14.93;10.38;;;29.30;91.70;;;;;;7427037;19;20020;-83
2023/08/18 21:12:12;;;;;;;15.93;11.10;;;29.30;91.70;;;;;;7426778;19;20014;-81
2023/08/18 21:14:50;;;;;;;18.33;11.10;;;29.30;91.70;;;;;;7427424;19;20047;-81
2023/08/18 21:17:24;;;;;;;17.60;11.48;;;29.30;91.70;;;;;;7427454;19;20019;-81
2023/08/18 21:20:03;;;;;;;16.65;11.20;;;29.30;91.70;;;;;;7429147;19;20006;-82
2023/08/18 21:22:40;;;;;;;17.95;10.60;;;29.30;91.70;;;;;;7450253;19;20014;-81
2023/08/18 21:25:11;;;;;;;19.25;11.43;;;29.30;91.70;;;;;;7426518;19;20213;-81
2023/08/18 21:27:50;;;;;;;16.60;11.07;;;29.30;91.70;;;;;;7427661;19;20243;-82
2023/08/18 21:30:23;;;;;;;17.73;11.25;;;29.30;91.80;;;;;;7428408;19;20109;-82
2023/08/18 21:32:59;;;;;;;18.95;10.55;;;29.30;91.80;;;;;;7426667;19;20011;-82
2023/08/18 21:35:37;;;;;;;21.05;11.55;;;29.30;91.90;;;;;;7412568;19;20010;-81
2023/08/18 21:38:15;;;;;;;20.67;11.00;;;29.30;91.90;;;;;;7396938;19;20002;-80
2023/08/18 21:40:57;;;;;;;15.95;10.55;;;29.20;91.90;;;;;;7406334;19;20039;-80
2023/08/18 21:43:26;;;;;;;20.50;10.77;;;29.30;91.90;;;;;;7417935;19;20010;-80
2023/08/18 21:46:17;;;;;;;17.70;10.23;;;29.20;92.00;;;;;;7396646;19;20011;-82
2023/08/18 21:48:57;;;;;;;16.45;11.57;;;29.20;92.00;;;;;;7398850;19;20281;-81
2023/08/18 21:51:36;;;;;;;;;;;;;;;;;;;;;
2023/08/18 21:54:23;;;;;;;14.15;10.93;;;29.20;92.00;;;;;;7398219;19;20006;-83
2023/08/18 21:56:53;;;;;;;16.05;11.65;;;29.10;91.90;;;;;;7397636;19;20079;-81
2023/08/18 21:59:21;;;;;;;17.40;11.38;;;29.10;91.90;;;;;;7394923;19;20353;-83
2023/08/18 22:01:54;;;;;;;21.60;11.00;;;29.20;91.90;;;;;;7396090;19;20278;-81
2023/08/18 22:04:26;;;;;;;18.20;11.20;;;29.20;91.90;;;;;;7419171;19;20014;-81
2023/08/18 22:06:54;;;;;;;22.35;11.43;;;29.30;91.90;;;;;;7400781;19;20047;-81